Weather reports worldwide

Advertisment
Reinosa, Spain (8032): temperature & dewpoint: 01.08.2020 02:00:00 - 07.08.2020 02:00:00 (CEST)Reinosa, Spain (8032): wind speed & gusts: 01.08.2020 02:00:00 - 07.08.2020 02:00:00 (CEST)Reinosa, Spain (8032): wind direction: 01.08.2020 02:00:00 - 07.08.2020 02:00:00 (CEST)Reinosa, Spain (8032): precipitation: 01.08.2020 02:00:00 - 07.08.2020 02:00:00 (CEST)
Date & Time tt [°C] td [°C] ff [km/h] ff [kn] fx [km/h] fx [kn] dd rr [mm]
07.08.2020 02:00:00 19,1 12,6 4 2 11 6 WSW -
07.08.2020 01:00:00 20,4 11,3 9 5 13 7 WSW 0,0
07.08.2020 00:00:00 21,4 9,6 6 3 11 6 WSW 0,0
06.08.2020 23:00:00 22,7 9,4 4 2 17 9 WSW 0,0
06.08.2020 22:00:00 23,1 10,2 9 5 15 8 WNW 0,0
06.08.2020 21:00:00 28,2 10,4 3 1 17 9 S 0,0
06.08.2020 20:00:00 30,4 10,9 6 3 18 10 NE -
06.08.2020 19:00:00 31,8 13,6 5 3 29 15 NNE 0,0
06.08.2020 18:00:00 33,4 7,4 11 6 27 14 WSW 0,0
06.08.2020 17:00:00 34,9 7,8 8 4 29 16 SSW 0,0
06.08.2020 16:00:00 33,9 7,8 9 5 24 13 SSW 0,0
06.08.2020 15:00:00 32,8 8,3 8 4 21 11 S 0,0
06.08.2020 14:00:00 31,4 7,7 13 7 21 11 SSE -
06.08.2020 13:00:00 29,3 7,3 8 4 21 12 SE 0,0
06.08.2020 12:00:00 28,6 7,3 8 4 18 10 SSE 0,0
06.08.2020 11:00:00 23,8 7,4 3 2 8 5 NNE 0,0
06.08.2020 10:00:00 21,0 5,8 2 1 4 2 E 0,0
06.08.2020 09:00:00 15,6 9,4 0 0 4 2 N 0,0
06.08.2020 08:00:00 11,2 7,1 1 0 7 4 NW -
06.08.2020 07:00:00 11,3 6,2 1 1 11 6 NW 0,0
06.08.2020 06:00:00 12,1 7,4 6 4 10 5 WSW 0,0
06.08.2020 05:00:00 11,7 7,0 4 2 9 5 WSW 0,0
06.08.2020 04:00:00 10,4 8,7 0 0 5 3 WNW 0,0
06.08.2020 03:00:00 11,2 8,9 1 0 5 3 W 0,0
06.08.2020 02:00:00 12,5 9,9 4 2 10 5 W -
06.08.2020 01:00:00 13,6 11,4 4 2 8 5 SW 0,0
06.08.2020 00:00:00 14,9 12,4 3 2 6 3 WNW 0,0
05.08.2020 23:00:00 15,1 11,4 4 2 7 4 WNW 0,0
05.08.2020 22:00:00 19,6 12,8 5 3 10 5 SE 0,0
05.08.2020 21:00:00 23,0 10,8 2 1 14 7 E 0,0
05.08.2020 20:00:00 25,0 10,9 8 4 21 11 ENE -
05.08.2020 19:00:00 25,9 11,2 16 8 24 13 ENE 0,0
05.08.2020 18:00:00 27,2 11,7 17 9 29 16 ENE 0,0
05.08.2020 17:00:00 27,9 11,0 16 9 27 15 ENE 0,0
05.08.2020 16:00:00 28,9 10,0 13 7 25 14 ENE 0,0
05.08.2020 15:00:00 28,6 9,8 11 6 22 12 ENE 0,0
05.08.2020 14:00:00 27,9 8,3 4 2 15 8 ENE -
05.08.2020 13:00:00 26,1 10,3 4 2 13 7 ESE 0,0
05.08.2020 12:00:00 23,1 11,2 3 1 8 5 SSE 0,0
05.08.2020 11:00:00 20,7 11,6 1 1 6 4 E 0,0
05.08.2020 10:00:00 16,1 11,9 0 0 0 0 N 0,0
05.08.2020 09:00:00 12,5 10,9 0 0 0 0 N 0,0
05.08.2020 08:00:00 10,1 9,2 0 0 6 3 N -
05.08.2020 07:00:00 8,5 7,6 4 2 10 5 WNW 0,0
05.08.2020 06:00:00 10,8 9,9 5 3 11 6 W 0,0
05.08.2020 05:00:00 10,7 9,8 6 3 10 5 SSW 0,0
05.08.2020 04:00:00 11,0 9,9 3 2 8 4 WSW 0,0
05.08.2020 03:00:00 11,0 9,8 1 1 7 4 W 0,0
05.08.2020 02:00:00 11,9 10,6 4 2 6 3 W -
05.08.2020 01:00:00 12,8 11,7 3 2 5 3 W 0,0
05.08.2020 00:00:00 13,0 11,8 3 1 7 4 WNW 0,0
04.08.2020 23:00:00 12,3 10,5 3 1 8 4 WNW 0,0
04.08.2020 22:00:00 16,0 13,0 1 1 13 7 SSW 0,0
04.08.2020 21:00:00 18,7 12,8 7 4 16 9 ENE 0,0
04.08.2020 20:00:00 20,1 12,6 6 3 16 9 ENE -
04.08.2020 19:00:00 19,8 11,8 10 5 28 15 NE 0,0
04.08.2020 18:00:00 20,6 11,0 12 6 26 14 NE 0,0
04.08.2020 17:00:00 22,3 10,2 8 4 22 12 NE 0,0
04.08.2020 16:00:00 22,7 10,2 9 5 27 15 ENE 0,0
04.08.2020 15:00:00 21,9 8,8 13 7 27 14 ENE 0,0
04.08.2020 14:00:00 20,4 9,0 12 7 27 15 E -
04.08.2020 13:00:00 20,9 9,4 10 6 24 13 E 0,0
04.08.2020 12:00:00 19,3 10,0 12 7 22 12 E 0,0
04.08.2020 11:00:00 19,6 9,4 8 4 17 9 ENE 0,0
04.08.2020 10:00:00 16,4 10,3 3 2 9 5 NNE 0,0
04.08.2020 09:00:00 14,1 9,9 2 1 7 4 WNW 0,0
04.08.2020 08:00:00 12,1 10,5 5 3 8 4 NW -
04.08.2020 07:00:00 11,1 8,8 3 2 8 5 WNW 0,0
04.08.2020 06:00:00 12,0 8,1 3 2 7 4 ENE 0,0
04.08.2020 05:00:00 13,3 9,3 6 4 10 5 E 0,0
04.08.2020 04:00:00 13,8 10,0 5 3 14 8 E 0,0
04.08.2020 03:00:00 13,6 11,3 5 3 10 5 NNE 0,0
04.08.2020 02:00:00 12,9 11,0 6 3 11 6 NW -
04.08.2020 01:00:00 13,5 11,7 7 4 16 9 E 0,0
04.08.2020 00:00:00 13,5 11,6 4 2 13 7 ESE 0,0
03.08.2020 23:00:00 13,4 11,2 8 4 18 10 E 0,0
03.08.2020 22:00:00 14,0 11,0 9 5 20 11 E 0,0
03.08.2020 21:00:00 16,1 8,5 7 4 22 12 E 0,0
03.08.2020 20:00:00 17,7 9,6 8 5 23 12 N -
03.08.2020 19:00:00 18,4 10,3 8 4 24 13 NE 0,0
03.08.2020 18:00:00 20,5 10,3 9 5 35 19 NNE 0,0
03.08.2020 17:00:00 20,4 10,2 11 6 35 19 NNE 0,0
03.08.2020 16:00:00 21,1 10,3 18 10 35 19 ENE 0,0
03.08.2020 15:00:00 20,9 9,4 11 6 34 18 NNE 0,0
03.08.2020 14:00:00 20,6 9,2 15 8 30 16 ENE -
03.08.2020 13:00:00 18,7 9,2 15 8 25 13 E 0,0
03.08.2020 12:00:00 17,7 8,8 11 6 21 11 E 0,0
03.08.2020 11:00:00 17,6 9,7 9 5 19 10 ENE 0,0
03.08.2020 10:00:00 14,5 8,7 2 1 6 3 SSE 0,0
03.08.2020 09:00:00 12,8 9,9 2 1 5 3 SSW 0,0
03.08.2020 08:00:00 9,3 7,8 1 1 6 3 WSW -
03.08.2020 07:00:00 10,0 8,7 2 1 13 7 SW 0,0
03.08.2020 06:00:00 9,5 8,3 1 0 8 5 WNW 0,0
03.08.2020 05:00:00 10,2 9,2 5 3 9 5 NNW 0,0
03.08.2020 04:00:00 11,4 10,2 4 2 13 7 W 0,0
03.08.2020 03:00:00 12,7 11,2 5 3 14 7 ENE 0,0
03.08.2020 02:00:00 13,4 11,4 7 4 11 6 E -
03.08.2020 01:00:00 13,5 11,0 3 2 20 11 N 0,0
03.08.2020 00:00:00 13,8 10,8 4 2 18 10 NE 0,0
02.08.2020 23:00:00 13,7 9,9 5 3 16 9 NNE 0,0
02.08.2020 22:00:00 14,0 9,4 6 3 21 11 N 0,0
02.08.2020 21:00:00 14,6 9,8 14 8 25 14 N 0,0
02.08.2020 20:00:00 15,3 10,5 14 7 27 15 N -
02.08.2020 19:00:00 16,3 11,7 10 5 21 11 N 0,0
02.08.2020 18:00:00 16,1 12,2 4 2 21 12 NE 0,0
02.08.2020 17:00:00 16,4 12,1 12 7 31 17 ENE 0,0
02.08.2020 16:00:00 16,3 12,1 16 9 35 19 NE 0,0
02.08.2020 15:00:00 18,6 11,7 9 5 23 12 NE 0,0
02.08.2020 14:00:00 17,7 11,4 12 7 27 15 ENE -
02.08.2020 13:00:00 16,2 11,6 13 7 29 16 NE 0,0
02.08.2020 12:00:00 16,2 11,6 14 8 32 18 NE 0,0
02.08.2020 11:00:00 15,9 11,7 7 4 16 9 N 0,0
02.08.2020 10:00:00 15,2 12,3 5 3 19 10 NE 0,0
02.08.2020 09:00:00 14,6 12,4 4 2 16 9 ENE 0,0
02.08.2020 08:00:00 14,3 12,8 4 2 11 6 ENE -
02.08.2020 07:00:00 14,1 12,6 5 3 8 5 E 0,0
02.08.2020 06:00:00 14,2 12,7 3 1 10 5 NE 0,0
02.08.2020 05:00:00 14,3 12,8 5 3 9 5 E 0,0
02.08.2020 04:00:00 14,5 13,1 3 1 5 3 E 0,0
02.08.2020 03:00:00 14,3 12,8 4 2 10 5 ESE 0,0
02.08.2020 02:00:00 14,5 13,1 3 2 8 5 ESE -
02.08.2020 01:00:00 14,3 12,8 2 1 13 7 SSE 0,0
02.08.2020 00:00:00 15,0 12,6 1 1 7 4 ESE 0,0
01.08.2020 23:00:00 14,6 12,6 3 1 15 8 SW 0,0
01.08.2020 22:00:00 14,7 12,7 10 6 15 8 E 0,0
01.08.2020 21:00:00 15,6 13,7 10 5 21 11 E 0,0
01.08.2020 20:00:00 16,3 13,9 9 5 23 12 ENE -
01.08.2020 19:00:00 17,7 13,5 6 3 26 14 N 0,0
01.08.2020 18:00:00 18,1 13,8 3 1 19 11 NNE 0,0
01.08.2020 17:00:00 18,1 14,2 10 5 24 13 ENE 0,0
01.08.2020 16:00:00 18,0 13,5 7 4 26 14 NE 0,0
01.08.2020 15:00:00 19,8 12,5 16 9 36 19 NE 0,0
01.08.2020 14:00:00 21,5 11,2 13 7 34 19 NE -
01.08.2020 13:00:00 21,7 10,5 16 9 27 15 ENE 0,0
01.08.2020 12:00:00 21,2 11,0 8 5 22 12 ENE 0,0
01.08.2020 11:00:00 18,3 10,6 1 1 17 9 N 0,0
01.08.2020 10:00:00 16,0 10,8 2 1 12 7 E 0,0
01.08.2020 09:00:00 14,1 13,0 3 2 7 4 SW 0,0
01.08.2020 08:00:00 12,2 11,2 4 2 7 4 WNW -
01.08.2020 07:00:00 12,8 11,9 3 2 5 3 W 0,0
01.08.2020 06:00:00 13,1 12,1 0 0 5 3 N 0,0
01.08.2020 05:00:00 13,4 12,4 0 0 6 4 N 0,0
01.08.2020 04:00:00 14,2 13,3 0 0 5 3 E 0,0
01.08.2020 03:00:00 13,6 12,6 2 1 7 4 W 0,0
01.08.2020 02:00:00 12,3 11,2 3 2 5 3 SSW -

tt = temperature
td = dewpoint
ff = wind speed
fx = gusts
dd = wind direction
rr = precipitation

Next stations